createdAt,value
2016-07-04T00:00:08.718Z,12.56
2016-07-04T00:01:08.404Z,12.51
2016-07-04T00:02:08.369Z,12.66
2016-07-04T00:03:08.384Z,12.69
2016-07-04T00:04:08.383Z,12.71
2016-07-04T00:05:08.371Z,12.69
2016-07-04T00:06:08.374Z,12.62
2016-07-04T00:07:08.371Z,12.63
2016-07-04T00:08:08.378Z,12.59
2016-07-04T00:09:08.408Z,12.62
2016-07-04T00:10:08.394Z,12.63
2016-07-04T00:11:08.369Z,12.52
2016-07-04T00:12:08.405Z,12.57
2016-07-04T00:13:08.404Z,12.66
2016-07-04T00:14:08.393Z,12.77
2016-07-04T00:15:08.371Z,12.71
2016-07-04T00:16:08.374Z,12.71
2016-07-04T00:17:08.398Z,12.78
2016-07-04T00:18:08.374Z,12.71
2016-07-04T00:19:08.384Z,12.78
2016-07-04T00:20:08.399Z,12.79
2016-07-04T00:21:08.373Z,12.81
2016-07-04T00:22:08.412Z,12.87
2016-07-04T00:23:08.401Z,12.84
2016-07-04T00:24:08.368Z,12.85
2016-07-04T00:25:08.410Z,12.89
2016-07-04T00:26:08.894Z,12.84
2016-07-04T00:27:08.407Z,12.82
2016-07-04T00:28:08.414Z,12.88
2016-07-04T00:29:08.391Z,12.81
2016-07-04T00:30:09.255Z,12.93
2016-07-04T00:31:09.072Z,13
2016-07-04T00:32:08.435Z,13.03
2016-07-04T00:33:09.395Z,12.96
2016-07-04T00:34:09.133Z,13
2016-07-04T00:35:08.937Z,13.04
2016-07-04T00:36:08.531Z,13.03
2016-07-04T00:37:08.407Z,13.04
2016-07-04T00:38:08.415Z,13.07
2016-07-04T00:39:08.431Z,13.02
2016-07-04T00:40:08.440Z,13.09
2016-07-04T00:41:08.447Z,13.12
2016-07-04T00:42:08.468Z,13.12
2016-07-04T00:43:08.430Z,13.22
2016-07-04T00:44:08.406Z,13.14
2016-07-04T00:45:08.429Z,13.2
2016-07-04T00:46:08.469Z,13.24
2016-07-04T00:47:08.468Z,13.27
2016-07-04T00:48:08.434Z,13.21
2016-07-04T00:49:08.469Z,13.25
2016-07-04T00:50:08.444Z,13.2
2016-07-04T00:51:08.408Z,13.3
2016-07-04T00:52:08.432Z,13.24
2016-07-04T00:53:08.437Z,13.15
2016-07-04T00:54:08.436Z,13.27
2016-07-04T00:55:08.442Z,13.17
2016-07-04T00:56:08.444Z,13.12
2016-07-04T00:57:08.834Z,13.32
2016-07-04T00:58:09.026Z,13.27
2016-07-04T00:59:08.473Z,13.25
2016-07-04T01:00:08.442Z,13.27
2016-07-04T01:01:08.483Z,13.27
2016-07-04T01:02:08.499Z,13.27
2016-07-04T01:03:08.474Z,13.29
2016-07-04T01:04:08.465Z,13.21
2016-07-04T01:05:08.439Z,13.33
2016-07-04T01:06:08.599Z,13.24
2016-07-04T01:07:08.492Z,13.32
2016-07-04T01:08:08.755Z,13.36
2016-07-04T01:09:08.481Z,13.29
2016-07-04T01:10:08.443Z,13.33
2016-07-04T01:11:08.704Z,13.27
2016-07-04T01:12:09.434Z,13.33
2016-07-04T01:13:08.471Z,13.32
2016-07-04T01:14:08.408Z,13.36
2016-07-04T01:15:08.440Z,13.44
2016-07-04T01:16:08.453Z,13.54
2016-07-04T01:17:08.480Z,13.4
2016-07-04T01:18:08.477Z,13.4
2016-07-04T01:19:08.440Z,13.46
2016-07-04T01:20:08.440Z,13.56
2016-07-04T01:21:08.444Z,13.38
2016-07-04T01:22:08.460Z,13.44
2016-07-04T01:23:08.475Z,13.49
2016-07-04T01:24:08.472Z,13.46
2016-07-04T01:25:08.461Z,13.41
2016-07-04T01:26:08.739Z,13.44
2016-07-04T01:27:08.473Z,13.51
2016-07-04T01:28:08.477Z,13.47
2016-07-04T01:29:08.508Z,13.44
2016-07-04T01:30:08.489Z,13.58
2016-07-04T01:31:09.250Z,13.47
2016-07-04T01:32:08.950Z,13.52
2016-07-04T01:33:09.161Z,13.59
2016-07-04T01:34:09.266Z,13.47
2016-07-04T01:35:09.349Z,13.46
2016-07-04T01:36:08.473Z,13.44
2016-07-04T01:37:08.610Z,13.55
2016-07-04T01:38:08.503Z,13.46
2016-07-04T01:39:08.494Z,13.54
2016-07-04T01:40:08.474Z,13.44
2016-07-04T01:41:08.711Z,13.52
2016-07-04T01:42:08.448Z,13.54
2016-07-04T01:43:08.470Z,13.58
2016-07-04T01:44:08.492Z,13.41
2016-07-04T01:45:08.506Z,13.54
2016-07-04T01:46:08.470Z,13.58
2016-07-04T01:47:08.544Z,13.54
2016-07-04T01:48:08.531Z,13.52
2016-07-04T01:49:08.532Z,13.49
2016-07-04T01:50:08.506Z,13.51
2016-07-04T01:51:08.501Z,13.49
2016-07-04T01:52:08.486Z,13.51
2016-07-04T01:53:08.482Z,13.63
2016-07-04T01:54:08.471Z,13.56
2016-07-04T01:55:08.504Z,13.56
2016-07-04T01:56:08.507Z,13.55
2016-07-04T01:57:08.483Z,13.62
2016-07-04T01:58:08.463Z,13.58
2016-07-04T01:59:08.479Z,13.56
2016-07-04T02:00:08.476Z,13.63
2016-07-04T02:01:08.476Z,13.61
2016-07-04T02:02:08.504Z,13.63
2016-07-04T02:03:08.498Z,13.52
2016-07-04T02:04:08.485Z,13.69
2016-07-04T02:05:09.462Z,13.56
2016-07-04T02:06:08.505Z,13.67
2016-07-04T02:07:09.151Z,13.54
2016-07-04T02:08:08.480Z,13.63
2016-07-04T02:09:08.645Z,13.47
2016-07-04T02:10:08.534Z,13.56
2016-07-04T02:11:08.672Z,13.55
2016-07-04T02:12:08.997Z,13.58
2016-07-04T02:13:08.739Z,13.52
2016-07-04T02:14:08.494Z,13.69
2016-07-04T02:15:08.666Z,13.51
2016-07-04T02:16:08.564Z,13.55
2016-07-04T02:17:08.639Z,13.46
2016-07-04T02:18:08.511Z,13.44
2016-07-04T02:19:08.481Z,13.46
2016-07-04T02:20:08.537Z,13.55
2016-07-04T02:21:08.570Z,13.47
2016-07-04T02:22:08.567Z,13.41
2016-07-04T02:23:08.510Z,13.49
2016-07-04T02:24:08.549Z,13.47
2016-07-04T02:25:08.552Z,13.46
2016-07-04T02:26:08.625Z,13.32
2016-07-04T02:27:08.535Z,13.32
2016-07-04T02:28:09.177Z,13.36
2016-07-04T02:29:08.569Z,13.37
2016-07-04T02:30:08.536Z,13.21
2016-07-04T02:31:08.502Z,13.32
2016-07-04T02:32:08.604Z,13.21
2016-07-04T02:33:09.126Z,13.32
2016-07-04T02:34:08.529Z,13.22
2016-07-04T02:35:09.110Z,13.14
2016-07-04T02:36:08.852Z,13.25
2016-07-04T02:37:09.353Z,13.2
2016-07-04T02:38:08.539Z,13.09
2016-07-04T02:39:08.564Z,13.15
2016-07-04T02:40:08.529Z,13.22
2016-07-04T02:41:08.532Z,13.18
2016-07-04T02:42:08.520Z,13.09
2016-07-04T02:43:08.524Z,13.15
2016-07-04T02:44:08.522Z,13.21
2016-07-04T02:45:08.531Z,13.18
2016-07-04T02:46:08.523Z,13.12
2016-07-04T02:47:08.548Z,13.15
2016-07-04T02:48:08.532Z,13.02
2016-07-04T02:49:08.502Z,13.03
2016-07-04T02:50:08.546Z,13.11
2016-07-04T02:51:08.507Z,13.06
2016-07-04T02:52:08.528Z,13.15
2016-07-04T02:53:08.535Z,12.99
2016-07-04T02:54:08.534Z,13.07
2016-07-04T02:55:08.502Z,12.97
2016-07-04T02:56:08.513Z,13.2
2016-07-04T02:57:08.547Z,13.14
2016-07-04T02:58:08.509Z,13.11
2016-07-04T02:59:08.508Z,13.09
2016-07-04T03:00:09.090Z,13.07
2016-07-04T03:01:08.537Z,13.04
2016-07-04T03:02:08.533Z,13.12
2016-07-04T03:03:08.503Z,13.11
2016-07-04T03:04:08.540Z,13.12
2016-07-04T03:05:08.516Z,13.12
2016-07-04T03:06:08.566Z,13.11
2016-07-04T03:07:08.533Z,13.15
2016-07-04T03:08:08.554Z,13.17
2016-07-04T03:09:09.243Z,13.2
2016-07-04T03:10:09.147Z,13.11
2016-07-04T03:11:08.563Z,13.15
2016-07-04T03:12:08.563Z,13.17
2016-07-04T03:13:08.536Z,13.2
2016-07-04T03:14:08.560Z,13.18
2016-07-04T03:15:08.839Z,13.12
2016-07-04T03:16:08.508Z,13.12
2016-07-04T03:17:08.620Z,13.17
2016-07-04T03:18:08.500Z,13.04
2016-07-04T03:19:08.527Z,13.09
2016-07-04T03:20:08.534Z,13.22
2016-07-04T03:21:08.522Z,13.18
2016-07-04T03:22:08.541Z,13.14
2016-07-04T03:23:08.530Z,13.25
2016-07-04T03:24:08.572Z,13.22
2016-07-04T03:25:08.567Z,13.15
2016-07-04T03:26:08.881Z,13.15
2016-07-04T03:27:08.528Z,13.22
2016-07-04T03:28:08.559Z,13.25
2016-07-04T03:29:08.536Z,13.33
2016-07-04T03:30:08.544Z,13.33
2016-07-04T03:31:08.535Z,13.24
2016-07-04T03:32:08.618Z,13.32
2016-07-04T03:33:08.565Z,13.22
2016-07-04T03:34:08.632Z,13.33
2016-07-04T03:35:08.579Z,13.32
2016-07-04T03:36:08.586Z,13.33
2016-07-04T03:37:08.571Z,13.38
2016-07-04T03:38:08.560Z,13.38
2016-07-04T03:39:08.571Z,13.36
2016-07-04T03:40:08.535Z,13.54
2016-07-04T03:41:08.533Z,13.49
2016-07-04T03:42:08.570Z,13.52
2016-07-04T03:43:08.562Z,13.46
2016-07-04T03:44:08.530Z,13.46
2016-07-04T03:45:08.570Z,13.54
2016-07-04T03:46:08.541Z,13.52
2016-07-04T03:47:08.558Z,13.4
2016-07-04T03:48:08.529Z,13.43
2016-07-04T03:49:08.560Z,13.4
2016-07-04T03:50:08.560Z,13.55
2016-07-04T03:51:08.534Z,13.49
2016-07-04T03:52:08.577Z,13.56
2016-07-04T03:53:08.551Z,13.51
2016-07-04T03:54:08.560Z,13.56
2016-07-04T03:55:08.564Z,13.56
2016-07-04T03:56:08.561Z,13.56
2016-07-04T03:57:08.547Z,13.62
2016-07-04T03:58:08.560Z,13.55
2016-07-04T03:59:08.555Z,13.67
2016-07-04T04:00:08.578Z,13.7
2016-07-04T04:01:08.596Z,13.73
2016-07-04T04:02:08.561Z,13.73
2016-07-04T04:03:08.562Z,13.76
2016-07-04T04:04:08.593Z,13.77
2016-07-04T04:05:08.595Z,13.79
2016-07-04T04:06:08.602Z,13.81
2016-07-04T04:07:08.589Z,13.8
2016-07-04T04:08:08.587Z,13.84
2016-07-04T04:09:08.586Z,13.89
2016-07-04T04:10:08.620Z,13.91
2016-07-04T04:11:08.589Z,13.84
2016-07-04T04:12:08.597Z,14.01
2016-07-04T04:13:08.574Z,13.98
2016-07-04T04:14:08.590Z,14.01
2016-07-04T04:15:08.624Z,14.01
2016-07-04T04:16:08.595Z,14.06
2016-07-04T04:17:08.593Z,14.13
2016-07-04T04:18:08.638Z,14.01
2016-07-04T04:19:08.593Z,13.95
2016-07-04T04:20:08.593Z,14.17
2016-07-04T04:21:08.603Z,14.14
2016-07-04T04:22:08.580Z,14.28
2016-07-04T04:23:08.586Z,14.27
2016-07-04T04:24:08.603Z,14.19
2016-07-04T04:25:08.574Z,14.31
2016-07-04T04:26:08.599Z,14.24
2016-07-04T04:27:08.597Z,14.16
2016-07-04T04:28:08.631Z,14.25
2016-07-04T04:29:08.604Z,14.14
2016-07-04T04:30:08.571Z,14.34
2016-07-04T04:31:08.654Z,14.31
2016-07-04T04:32:08.594Z,14.42
2016-07-04T04:33:08.616Z,14.28
2016-07-04T04:34:08.633Z,14.46
2016-07-04T04:35:09.479Z,14.53
2016-07-04T04:36:09.415Z,14.46
2016-07-04T04:37:09.407Z,14.44
2016-07-04T04:38:09.372Z,14.38
2016-07-04T04:39:09.107Z,14.52
2016-07-04T04:40:09.077Z,14.53
2016-07-04T04:41:08.667Z,14.52
2016-07-04T04:42:08.599Z,14.68
2016-07-04T04:43:09.080Z,14.57
2016-07-04T04:44:08.629Z,14.53
2016-07-04T04:45:09.028Z,14.62
2016-07-04T04:46:08.684Z,14.65
2016-07-04T04:47:08.606Z,14.64
2016-07-04T04:48:08.629Z,14.74
2016-07-04T04:49:08.634Z,14.64
2016-07-04T04:50:08.659Z,14.75
2016-07-04T04:51:08.711Z,14.8
2016-07-04T04:52:08.627Z,14.83
2016-07-04T04:53:08.627Z,14.83
2016-07-04T04:54:08.633Z,14.8
2016-07-04T04:55:08.617Z,14.87
2016-07-04T04:56:08.659Z,14.88
2016-07-04T04:57:08.635Z,14.83
2016-07-04T04:58:08.611Z,14.93
2016-07-04T04:59:08.631Z,14.95
2016-07-04T05:00:08.631Z,15.01
2016-07-04T05:01:09.116Z,15.05
2016-07-04T05:02:09.241Z,14.98
2016-07-04T05:03:08.849Z,14.93
2016-07-04T05:04:08.730Z,15.19
2016-07-04T05:05:08.637Z,15.12
2016-07-04T05:06:09.188Z,15.19
2016-07-04T05:07:08.959Z,15.19
2016-07-04T05:08:08.656Z,15.19
2016-07-04T05:09:08.636Z,15.23
2016-07-04T05:10:08.655Z,15.06
2016-07-04T05:11:08.647Z,15.15
2016-07-04T05:12:08.659Z,15.21
2016-07-04T05:13:08.632Z,15.17
2016-07-04T05:14:08.648Z,15.23
2016-07-04T05:15:08.667Z,15.24
2016-07-04T05:16:08.639Z,15.26
2016-07-04T05:17:08.693Z,15.23
2016-07-04T05:18:08.636Z,15.35
2016-07-04T05:19:08.837Z,15.38
2016-07-04T05:20:08.725Z,15.31
2016-07-04T05:21:08.730Z,15.41
2016-07-04T05:22:09.002Z,15.38
2016-07-04T05:23:08.752Z,15.48
2016-07-04T05:24:08.925Z,15.35
2016-07-04T05:25:09.653Z,15.45
2016-07-04T05:26:08.899Z,15.54
2016-07-04T05:27:08.748Z,15.64
2016-07-04T05:28:08.897Z,15.52
2016-07-04T05:29:08.791Z,15.59
2016-07-04T05:30:08.820Z,15.67
2016-07-04T05:31:08.695Z,15.68
2016-07-04T05:32:08.660Z,15.68
2016-07-04T05:33:08.661Z,15.7
2016-07-04T05:34:08.628Z,15.78
2016-07-04T05:35:09.380Z,15.81
2016-07-04T05:36:09.122Z,15.84
2016-07-04T05:37:14.678Z,15.86
2016-07-04T05:38:09.258Z,15.93
2016-07-04T05:39:09.898Z,15.89
2016-07-04T05:40:08.660Z,15.96
2016-07-04T05:41:08.674Z,15.99
2016-07-04T05:42:08.645Z,16.11
2016-07-04T05:43:08.695Z,16.14
2016-07-04T05:44:08.648Z,16.18
2016-07-04T05:45:08.688Z,16.33
2016-07-04T05:46:08.714Z,16.38
2016-07-04T05:47:08.681Z,16.5
2016-07-04T05:48:08.929Z,16.44
2016-07-04T05:49:09.500Z,16.58
2016-07-04T05:50:09.076Z,16.62
2016-07-04T05:51:08.656Z,16.83
2016-07-04T05:52:08.666Z,16.75
2016-07-04T05:53:08.658Z,16.85
2016-07-04T05:54:08.695Z,17.04
2016-07-04T05:55:08.829Z,17.1
2016-07-04T05:56:08.703Z,17.23
2016-07-04T05:57:08.680Z,17.29
2016-07-04T05:58:08.690Z,17.29
2016-07-04T05:59:08.685Z,17.38
2016-07-04T06:00:08.960Z,17.55
2016-07-04T06:01:08.713Z,17.57
2016-07-04T06:02:08.699Z,17.55
2016-07-04T06:03:08.665Z,17.73
2016-07-04T06:04:08.673Z,17.85
2016-07-04T06:05:08.669Z,17.81
2016-07-04T06:06:08.679Z,17.99
2016-07-04T06:07:08.737Z,18.07
2016-07-04T06:08:08.675Z,18.15
2016-07-04T06:09:08.671Z,18.19
2016-07-04T06:10:09.589Z,18.28
2016-07-04T06:11:08.754Z,18.42
2016-07-04T06:12:08.704Z,18.47
2016-07-04T06:13:08.888Z,18.43
2016-07-04T06:14:08.673Z,18.47
2016-07-04T06:15:08.767Z,18.52
2016-07-04T06:16:08.754Z,18.59
2016-07-04T06:17:08.690Z,18.73
2016-07-04T06:18:08.752Z,18.73
2016-07-04T06:19:08.665Z,18.74
2016-07-04T06:20:08.982Z,18.72
2016-07-04T06:21:08.905Z,18.86
2016-07-04T06:22:08.752Z,18.77
2016-07-04T06:23:08.873Z,18.92
2016-07-04T06:24:08.733Z,18.98
2016-07-04T06:25:08.714Z,18.95
2016-07-04T06:26:08.705Z,18.82
2016-07-04T06:27:08.727Z,18.79
2016-07-04T06:28:08.866Z,18.67
2016-07-04T06:29:08.691Z,19.17
2016-07-04T06:30:08.741Z,19.33
2016-07-04T06:31:08.754Z,19.57
2016-07-04T06:32:09.533Z,20.2
2016-07-04T06:33:08.806Z,20.38
2016-07-04T06:34:08.964Z,21.24
2016-07-04T06:35:09.726Z,21.92
2016-07-04T06:36:08.778Z,22.57
2016-07-04T06:37:08.863Z,23.11
2016-07-04T06:38:08.782Z,23.5
2016-07-04T06:39:08.710Z,23.94
2016-07-04T06:40:08.847Z,24.38
2016-07-04T06:41:08.842Z,24.27
2016-07-04T06:42:08.813Z,24.52
2016-07-04T06:43:08.728Z,24.1
2016-07-04T06:44:08.723Z,24.27
2016-07-04T06:45:08.742Z,24.32
2016-07-04T06:46:08.704Z,24.1
2016-07-04T06:47:08.763Z,24.05
2016-07-04T06:48:08.795Z,24.02
2016-07-04T06:49:08.767Z,24.26
2016-07-04T06:50:08.909Z,24.26
2016-07-04T06:51:08.874Z,24.94
2016-07-04T06:52:08.748Z,25.1
2016-07-04T06:53:08.942Z,25.43
2016-07-04T06:54:08.741Z,25.75
2016-07-04T06:55:08.763Z,26.22
2016-07-04T06:56:08.793Z,26.64
2016-07-04T06:57:09.507Z,26.77
2016-07-04T06:58:08.761Z,26.95
2016-07-04T06:59:08.844Z,27.21
2016-07-04T07:00:09.812Z,27.36
2016-07-04T07:01:08.789Z,27.54
2016-07-04T07:02:08.812Z,27.82
2016-07-04T07:03:08.812Z,27.92
2016-07-04T07:04:08.842Z,28.07
2016-07-04T07:05:08.820Z,28.28
2016-07-04T07:06:09.488Z,28.38
2016-07-04T07:07:08.848Z,28.46
2016-07-04T07:08:08.755Z,28.41
2016-07-04T07:09:08.790Z,28.51
2016-07-04T07:10:08.768Z,28.69
2016-07-04T07:11:08.774Z,28.73
2016-07-04T07:12:08.767Z,28.88
2016-07-04T07:13:08.824Z,28.97
2016-07-04T07:14:08.788Z,29.13
2016-07-04T07:15:08.774Z,29.34
2016-07-04T07:16:08.875Z,29.28
2016-07-04T07:17:08.791Z,29.44
2016-07-04T07:18:09.506Z,29.45
2016-07-04T07:19:08.761Z,29.56
2016-07-04T07:20:08.808Z,29.63
2016-07-04T07:21:08.834Z,29.71
2016-07-04T07:22:08.878Z,29.82
2016-07-04T07:23:08.842Z,29.94
2016-07-04T07:24:08.763Z,29.86
2016-07-04T07:25:08.775Z,29.89
2016-07-04T07:26:08.768Z,29.89
2016-07-04T07:27:08.789Z,29.89
2016-07-04T07:28:08.857Z,30.07
2016-07-04T07:29:08.822Z,30.24
2016-07-04T07:30:08.796Z,30.18
2016-07-04T07:31:09.227Z,29.89
2016-07-04T07:32:08.838Z,29.78
2016-07-04T07:33:08.828Z,29.6
2016-07-04T07:34:08.762Z,29.63
2016-07-04T07:35:08.760Z,29.68
2016-07-04T07:36:08.764Z,29.75
2016-07-04T07:37:09.023Z,29.68
2016-07-04T07:38:08.787Z,29.77
2016-07-04T07:39:08.770Z,29.9
2016-07-04T07:40:08.836Z,29.94
2016-07-04T07:41:08.853Z,30.14
2016-07-04T07:42:08.924Z,30.24
2016-07-04T07:43:08.905Z,30.34
2016-07-04T07:44:08.951Z,29.4
2016-07-04T07:45:09.299Z,29.16
2016-07-04T07:46:09.155Z,29.37
2016-07-04T07:47:09.060Z,29.53
2016-07-04T07:48:09.028Z,29.59
2016-07-04T07:49:09.162Z,29.59
2016-07-04T07:50:09.013Z,29.56
2016-07-04T07:51:08.836Z,29.68
2016-07-04T07:52:08.871Z,29.53
2016-07-04T07:53:09.589Z,29.68
2016-07-04T07:54:10.013Z,29.68
2016-07-04T07:55:09.012Z,29.56
2016-07-04T07:56:08.852Z,29.53
2016-07-04T07:57:08.818Z,29.62
2016-07-04T07:58:08.854Z,29.59
2016-07-04T07:59:08.842Z,29.62
2016-07-04T08:00:08.988Z,29.62
2016-07-04T08:01:08.843Z,29.57
2016-07-04T08:02:08.980Z,29.35
2016-07-04T08:03:09.243Z,29.28
2016-07-04T08:04:08.859Z,29.13
2016-07-04T08:05:08.848Z,29.1
2016-07-04T08:06:08.856Z,28.84
2016-07-04T08:07:08.904Z,28.85
2016-07-04T08:08:08.956Z,28.8
2016-07-04T08:09:08.942Z,28.58
2016-07-04T08:10:08.933Z,28.48
2016-07-04T08:11:08.854Z,28.48
2016-07-04T08:12:09.042Z,28.35
2016-07-04T08:13:08.884Z,28.07
2016-07-04T08:14:09.089Z,28.1
2016-07-04T08:15:08.824Z,27.85
2016-07-04T08:16:08.924Z,27.64
2016-07-04T08:17:09.111Z,27.47
2016-07-04T08:18:08.883Z,27.42
2016-07-04T08:19:09.095Z,27.29
2016-07-04T08:20:08.883Z,27.16
2016-07-04T08:21:09.214Z,26.99
2016-07-04T08:22:08.865Z,26.84
2016-07-04T08:23:08.903Z,26.74
2016-07-04T08:24:08.881Z,26.49
2016-07-04T08:25:08.932Z,26.27
2016-07-04T08:26:09.172Z,26.12
2016-07-04T08:27:08.917Z,26.17
2016-07-04T08:28:08.941Z,25.98
2016-07-04T08:29:08.914Z,25.82
2016-07-04T08:30:08.881Z,25.93
2016-07-04T08:31:08.863Z,25.75
2016-07-04T08:32:09.905Z,25.72
2016-07-04T08:33:08.973Z,25.65
2016-07-04T08:34:09.063Z,25.5
2016-07-04T08:35:08.931Z,25.35
2016-07-04T08:36:08.944Z,25.25
2016-07-04T08:37:08.879Z,25.34
2016-07-04T08:38:08.966Z,25.2
2016-07-04T08:39:08.980Z,25.15
2016-07-04T08:40:08.977Z,25.17
2016-07-04T08:41:09.440Z,25.16
2016-07-04T08:42:08.891Z,25.15
2016-07-04T08:43:08.975Z,25.28
2016-07-04T08:44:09.064Z,25.31
2016-07-04T08:45:09.396Z,25.3
2016-07-04T08:46:20.073Z,25.06
2016-07-04T08:47:09.052Z,25.15
2016-07-04T08:48:14.440Z,25.07
2016-07-04T08:49:09.423Z,25.01
2016-07-04T08:50:09.322Z,25.05
2016-07-04T08:51:09.872Z,25.13
2016-07-04T08:53:11.311Z,25.22
2016-07-04T08:55:14.854Z,25.01
2016-07-04T08:58:09.054Z,25.12
2016-07-04T09:26:09.741Z,23.67
2016-07-04T09:27:09.817Z,23.82
2016-07-04T09:28:08.982Z,23.82
2016-07-04T09:29:09.163Z,23.76
2016-07-04T09:30:09.986Z,23.89
2016-07-04T09:31:09.755Z,24.1
2016-07-04T09:32:08.979Z,24.24
2016-07-04T09:33:08.920Z,24.27
2016-07-04T09:34:09.148Z,24.31
2016-07-04T09:35:08.952Z,24.39
2016-07-04T09:36:08.945Z,24.32
2016-07-04T09:37:08.968Z,24.13
2016-07-04T09:38:08.972Z,23.86
2016-07-04T09:39:09.099Z,23.68
2016-07-04T09:40:08.952Z,23.77
2016-07-04T09:41:08.978Z,23.82
2016-07-04T09:42:09.059Z,23.8
2016-07-04T09:43:08.984Z,23.75
2016-07-04T09:44:09.037Z,23.79
2016-07-04T09:45:08.956Z,23.92
2016-07-04T09:46:09.023Z,24.12
2016-07-04T09:47:08.999Z,24.39
2016-07-04T09:48:09.117Z,24.61
2016-07-04T09:49:09.001Z,24.71
2016-07-04T09:50:10.096Z,24.75
2016-07-04T09:51:09.033Z,24.8
2016-07-04T09:52:08.963Z,24.76
2016-07-04T09:53:08.971Z,24.59
2016-07-04T09:54:08.982Z,24.6
2016-07-04T09:55:08.977Z,24.8
2016-07-04T09:56:09.044Z,24.9
2016-07-04T09:57:08.970Z,24.91
2016-07-04T09:58:09.103Z,25.06
2016-07-04T09:59:08.978Z,24.82
2016-07-04T10:00:08.972Z,24.76
2016-07-04T10:01:08.975Z,24.75
2016-07-04T10:02:09.954Z,24.9
2016-07-04T10:03:08.978Z,25.07
2016-07-04T10:04:08.984Z,25.09
2016-07-04T10:05:09.051Z,25.2
2016-07-04T10:06:08.991Z,25.17
2016-07-04T10:07:09.005Z,25.09
2016-07-04T10:08:09.033Z,25.12
2016-07-04T10:09:09.032Z,25.24
2016-07-04T10:10:08.949Z,25.32
2016-07-04T10:11:09.044Z,25.1
2016-07-04T10:12:09.008Z,25.07
2016-07-04T10:13:09.156Z,24.85
2016-07-04T10:14:09.037Z,24.88
2016-07-04T10:15:09.838Z,24.73
2016-07-04T10:16:09.022Z,24.67
2016-07-04T10:17:09.125Z,24.53
2016-07-04T10:18:09.040Z,24.49
2016-07-04T10:19:09.002Z,24.45
2016-07-04T10:20:09.024Z,24.54
2016-07-04T10:21:09.004Z,24.64
2016-07-04T10:22:09.067Z,24.67
2016-07-04T10:23:09.040Z,24.88
2016-07-04T10:24:09.008Z,25.06
2016-07-04T10:25:09.008Z,25
2016-07-04T10:26:09.040Z,25.13
2016-07-04T10:27:08.973Z,25.17
2016-07-04T10:28:09.020Z,25.28
2016-07-04T10:29:08.948Z,25.42
2016-07-04T10:30:10.227Z,25.31
2016-07-04T10:31:09.036Z,25.25
2016-07-04T10:32:09.008Z,25.2
2016-07-04T10:33:09.003Z,25.19
2016-07-04T10:34:08.944Z,25.06
2016-07-04T10:35:09.046Z,25.09
2016-07-04T10:36:08.980Z,24.92
2016-07-04T10:37:08.958Z,24.98
2016-07-04T10:38:08.954Z,25.05
2016-07-04T10:39:08.952Z,24.9
2016-07-04T10:40:09.009Z,24.88
2016-07-04T10:41:08.961Z,24.85
2016-07-04T10:42:08.979Z,24.68
2016-07-04T10:43:09.029Z,24.9
2016-07-04T10:44:09.020Z,24.9
2016-07-04T10:45:08.995Z,24.88
2016-07-04T10:46:09.000Z,24.88
2016-07-04T10:47:09.001Z,24.82
2016-07-04T10:48:09.056Z,24.77
2016-07-04T10:49:08.992Z,24.88
2016-07-04T10:50:09.073Z,24.79
2016-07-04T10:51:09.034Z,24.61
2016-07-04T10:52:09.100Z,24.6
2016-07-04T10:53:09.147Z,24.68
2016-07-04T10:54:09.248Z,24.64
2016-07-04T10:55:09.154Z,24.64
2016-07-04T10:56:09.159Z,24.71
2016-07-04T10:57:09.069Z,24.56
2016-07-04T10:58:09.060Z,24.6
2016-07-04T10:59:10.006Z,24.63
2016-07-04T11:00:09.995Z,24.6
2016-07-04T11:01:09.059Z,24.6
2016-07-04T11:02:09.051Z,24.57
2016-07-04T11:03:09.093Z,24.57
2016-07-04T11:04:09.009Z,24.38
2016-07-04T11:05:08.989Z,24.59
2016-07-04T11:06:09.082Z,24.41
2016-07-04T11:07:09.084Z,24.56
2016-07-04T11:08:09.026Z,24.54
2016-07-04T11:09:09.222Z,24.54
2016-07-04T11:10:09.251Z,24.53
2016-07-04T11:11:09.043Z,24.61
2016-07-04T11:12:09.266Z,24.83
2016-07-04T11:13:09.245Z,24.97
2016-07-04T11:14:09.182Z,25.05
2016-07-04T11:15:09.854Z,25.15
2016-07-04T11:16:09.108Z,25.16
2016-07-04T11:17:09.166Z,25.09
2016-07-04T11:18:09.113Z,25.24
2016-07-04T11:19:10.551Z,25.12
2016-07-04T11:20:09.092Z,25.09
2016-07-04T11:21:09.127Z,25.15
2016-07-04T11:22:09.162Z,25.09
2016-07-04T11:23:09.045Z,25.09
2016-07-04T11:24:09.136Z,25
2016-07-04T11:25:09.104Z,25.07
2016-07-04T11:26:09.162Z,24.95
2016-07-04T11:27:09.908Z,24.92
2016-07-04T11:28:09.081Z,24.87
2016-07-04T11:29:09.161Z,24.79
2016-07-04T11:30:09.173Z,24.75
2016-07-04T11:31:09.128Z,24.64
2016-07-04T11:32:09.070Z,24.73
2016-07-04T11:33:09.049Z,24.9
2016-07-04T11:34:09.084Z,24.69
2016-07-04T11:35:09.655Z,24.59
2016-07-04T11:36:09.095Z,24.75
2016-07-04T11:37:09.075Z,24.91
2016-07-04T11:38:09.033Z,24.83
2016-07-04T11:39:09.075Z,24.98
2016-07-04T11:40:09.037Z,25.02
2016-07-04T11:41:09.058Z,25
2016-07-04T11:42:09.590Z,25.07
2016-07-04T11:43:09.084Z,25.15
2016-07-04T11:44:09.960Z,25.02
2016-07-04T11:45:09.126Z,25.05
2016-07-04T11:46:10.092Z,24.92
2016-07-04T11:47:09.312Z,25.01
2016-07-04T11:48:09.931Z,24.9
2016-07-04T11:49:09.059Z,24.88
2016-07-04T11:50:09.336Z,24.94
2016-07-04T11:51:09.109Z,24.83
2016-07-04T11:52:10.051Z,24.94
2016-07-04T11:53:09.126Z,24.94
2016-07-04T11:54:09.118Z,24.95
2016-07-04T11:55:09.121Z,24.98
2016-07-04T11:56:09.179Z,24.9
2016-07-04T11:57:09.093Z,24.83
2016-07-04T11:58:09.194Z,24.8
2016-07-04T11:59:09.092Z,24.79
2016-07-04T12:00:09.138Z,24.59
2016-07-04T12:01:09.123Z,24.68
2016-07-04T12:02:09.068Z,24.87
2016-07-04T12:03:09.141Z,24.87
2016-07-04T12:04:09.155Z,24.9
2016-07-04T12:05:09.224Z,24.8
2016-07-04T12:06:09.159Z,24.97
2016-07-04T12:07:09.224Z,24.91
2016-07-04T12:08:09.918Z,25.06
2016-07-04T12:09:09.175Z,25
2016-07-04T12:10:09.888Z,24.92
2016-07-04T12:11:09.909Z,24.85
2016-07-04T12:12:09.126Z,24.88
2016-07-04T12:13:09.135Z,24.88
2016-07-04T12:14:09.107Z,24.94
2016-07-04T12:15:09.127Z,24.97
2016-07-04T12:16:09.135Z,25.06
2016-07-04T12:17:09.131Z,25.07
2016-07-04T12:18:09.110Z,25
2016-07-04T12:19:09.143Z,25.02
2016-07-04T12:20:09.765Z,25.07
2016-07-04T12:21:09.156Z,25.13
2016-07-04T12:22:09.170Z,25.24
2016-07-04T12:23:09.171Z,25.28
2016-07-04T12:24:09.148Z,25.32
2016-07-04T12:25:09.197Z,25.44
2016-07-04T12:26:09.104Z,25.52
2016-07-04T12:27:09.157Z,25.77
2016-07-04T12:28:09.144Z,25.94
2016-07-04T12:29:09.124Z,25.98
2016-07-04T12:30:09.408Z,26.17
2016-07-04T12:31:09.183Z,26.22
2016-07-04T12:32:09.148Z,26.28
2016-07-04T12:33:09.183Z,26.31
2016-07-04T12:34:09.190Z,26.31
2016-07-04T12:35:09.162Z,26.21
2016-07-04T12:36:09.198Z,26.22
2016-07-04T12:37:09.221Z,25.93
2016-07-04T12:38:09.168Z,25.8
2016-07-04T12:39:09.137Z,25.79
2016-07-04T12:40:09.229Z,25.75
2016-07-04T12:41:09.307Z,25.79
2016-07-04T12:42:10.117Z,25.71
2016-07-04T12:43:09.208Z,25.83
2016-07-04T12:44:09.259Z,25.74
2016-07-04T12:45:09.144Z,25.72
2016-07-04T12:46:09.180Z,25.64
2016-07-04T12:47:09.281Z,25.64
2016-07-04T12:48:09.118Z,25.59
2016-07-04T12:49:09.381Z,25.67
2016-07-04T12:50:09.165Z,25.43
2016-07-04T12:51:09.216Z,25.49
2016-07-04T12:52:10.189Z,25.37
2016-07-04T12:53:10.164Z,25.52
2016-07-04T12:54:09.761Z,25.61
2016-07-04T12:55:09.751Z,25.8
2016-07-04T12:56:09.656Z,25.74
2016-07-04T12:57:09.653Z,25.69
2016-07-04T12:58:09.803Z,25.5
2016-07-04T12:59:10.148Z,25.52
2016-07-04T13:00:09.194Z,25.49
2016-07-04T13:01:09.254Z,25.38
2016-07-04T13:02:09.205Z,25.44
2016-07-04T13:03:09.762Z,25.42
2016-07-04T13:04:09.197Z,25.46
2016-07-04T13:05:09.195Z,25.39
2016-07-04T13:06:09.232Z,25.42
2016-07-04T13:07:09.796Z,25.5
2016-07-04T13:08:09.174Z,25.62
2016-07-04T13:09:09.207Z,25.72
2016-07-04T13:10:09.185Z,25.72
2016-07-04T13:11:09.247Z,25.75
2016-07-04T13:12:09.245Z,25.93
2016-07-04T13:13:09.184Z,25.8
2016-07-04T13:14:09.179Z,25.8
2016-07-04T13:15:09.154Z,26.01
2016-07-04T13:16:09.335Z,25.94
2016-07-04T13:17:09.232Z,25.97
2016-07-04T13:18:09.190Z,26.04
2016-07-04T13:19:09.301Z,26.08
2016-07-04T13:20:09.246Z,26.25
2016-07-04T13:21:09.199Z,26.27
2016-07-04T13:22:09.193Z,26.27
2016-07-04T13:23:09.176Z,26.39
2016-07-04T13:24:09.177Z,26.44
2016-07-04T13:25:09.149Z,26.5
2016-07-04T13:26:09.185Z,26.47